This is the latest recevied weather packets stored in our database for station/object DL2GPS-3. If no packets are shown the sender has not sent any weather packets the latest 10 day(s).
| Time | Temp. | Humidity | Pressure | Rain* | Wind** | Luminosity | Snow |
|---|---|---|---|---|---|---|---|
| 1777815904 | 23.89° C | 32% | 1016.6 hPa | - | - | - | - |
| 1777815300 | 24.44° C | 32% | 1016.6 hPa | - | - | - | - |
| 1777814695 | 23.89° C | 33% | 1016.6 hPa | - | - | - | - |
| 1777814090 | 23.33° C | 36% | 1016.6 hPa | - | - | - | - |
| 1777813484 | 23.33° C | 35% | 1016.6 hPa | - | - | - | - |
| 1777812880 | 21.11° C | 39% | 1016.8 hPa | - | - | - | - |
| 1777812275 | 22.22° C | 36% | 1016.7 hPa | - | - | - | - |
| 1777811671 | 22.78° C | 30% | 1016.6 hPa | - | - | - | - |
| 1777811066 | 23.33° C | 36% | 1016.9 hPa | - | - | - | - |
| 1777810460 | 22.78° C | 34% | 1016.9 hPa | - | - | - | - |
| 1777809856 | 23.33° C | 32% | 1017 hPa | - | - | - | - |
| 1777809251 | 22.78° C | 35% | 1017.1 hPa | - | - | - | - |
| 1777808645 | 23.33° C | 33% | 1017.1 hPa | - | - | - | - |
| 1777808041 | 23.33° C | 32% | 1017.1 hPa | - | - | - | - |
| 1777807436 | 22.78° C | 33% | 1017.2 hPa | - | - | - | - |
| 1777806831 | 22.78° C | 34% | 1017.3 hPa | - | - | - | - |
| 1777806226 | 22.78° C | 33% | 1017.5 hPa | - | - | - | - |
| 1777805621 | 23.33° C | 33% | 1017.4 hPa | - | - | - | - |
| 1777805016 | 23.33° C | 32% | 1017.5 hPa | - | - | - | - |
| 1777804411 | 23.33° C | 33% | 1017.6 hPa | - | - | - | - |
| 1777803805 | 22.78° C | 33% | 1017.7 hPa | - | - | - | - |
| 1777803201 | 22.78° C | 34% | 1017.8 hPa | - | - | - | - |
| 1777802595 | 22.22° C | 34% | 1017.8 hPa | - | - | - | - |
| 1777801991 | 21.67° C | 35% | 1017.9 hPa | - | - | - | - |
| 1777801386 | 22.78° C | 33% | 1017.9 hPa | - | - | - | - |
* Rain since midnight (hover to see other rain measurements)
** Current wind speed in m/s (hover to see current wind gust speed)